Time;durP1;ratioP1;P1;durP2;ratioP2;P2;SDS_P1;SDS_P2;PMS_P1;PMS_P2;Temp;Humidity;BMP_temperature;BMP_pressure;BME280_temperature;BME280_humidity;BME280_pressure;Samples;Min_cycle;Max_cycle;Signal;HPM_P1;HPM_P2
2022/11/11 00:02:27;;;;;;;28.87;20.33;;;;;;;11.58;71.32;101404.74;1801193;78;21214;-74
2022/11/11 00:05:12;;;;;;;32.07;19.40;;;;;;;11.58;71.33;101406.91;1824686;78;21323;-74
2022/11/11 00:07:58;;;;;;;28.10;20.00;;;;;;;11.61;71.31;101409.61;1798133;78;21355;-74
2022/11/11 00:10:44;;;;;;;26.93;20.70;;;;;;;11.64;71.32;101407.26;1809609;78;21298;-73
2022/11/11 00:13:29;;;;;;;26.23;19.73;;;;;;;11.66;71.25;101415.06;1820028;78;21813;-74
2022/11/11 00:16:17;;;;;;;30.20;21.77;;;;;;;11.69;71.28;101417.25;1814793;78;21269;-73
2022/11/11 00:25:24;;;;;;;26.67;19.53;;;;;;;11.58;71.31;101420.80;1806736;78;21775;-73
2022/11/11 00:28:09;;;;;;;33.43;21.83;;;;;;;11.50;71.44;101416.13;1807262;78;21885;-74
2022/11/11 00:31:05;;;;;;;29.77;21.33;;;;;;;11.44;71.61;101422.45;1812210;78;21085;-74
2022/11/11 00:33:53;;;;;;;34.77;22.07;;;;;;;11.41;71.81;101427.47;1821090;78;21387;-73
2022/11/11 00:36:39;;;;;;;29.20;20.40;;;;;;;11.41;71.94;101429.61;1820660;78;21600;-73
2022/11/11 00:39:23;;;;;;;31.77;21.47;;;;;;;11.42;72.06;101426.44;1823196;78;21242;-73
2022/11/11 00:42:09;;;;;;;28.30;20.67;;;;;;;11.41;72.14;101420.25;1805836;78;21316;-73
2022/11/11 00:44:53;;;;;;;33.07;21.40;;;;;;;11.44;72.22;101423.78;1760784;81;21560;-74
2022/11/11 00:50:59;;;;;;;30.10;21.53;;;;;;;11.52;72.24;101417.24;1819133;78;21191;-72
2022/11/11 00:53:46;;;;;;;28.17;19.73;;;;;;;11.53;72.23;101420.20;1800550;78;21098;-74
2022/11/11 00:56:38;;;;;;;31.63;21.23;;;;;;;11.53;72.24;101414.04;1787708;80;21314;-74
2022/11/11 00:59:24;;;;;;;27.87;19.87;;;;;;;11.58;72.29;101416.78;1822804;78;21178;-73
2022/11/11 01:02:09;;;;;;;28.73;20.67;;;;;;;11.63;72.28;101412.86;1791283;80;21741;-72
2022/11/11 01:04:54;;;;;;;27.50;20.17;;;;;;;11.64;72.22;101417.96;1816401;78;21142;-72
2022/11/11 01:07:38;;;;;;;27.47;20.60;;;;;;;11.63;72.20;101412.86;1824778;78;21207;-72
2022/11/11 01:10:40;;;;;;;27.83;20.93;;;;;;;11.60;72.26;101420.84;1805540;78;21299;-72
2022/11/11 01:13:29;;;;;;;31.60;21.40;;;;;;;11.56;72.25;101425.59;1792171;80;21128;-73
2022/11/11 01:16:18;;;;;;;28.10;20.77;;;;;;;11.49;72.45;101425.22;1792336;80;21718;-73
2022/11/11 01:19:04;;;;;;;25.07;18.43;;;;;;;11.48;72.57;101428.95;1808202;78;22384;-72
2022/11/11 01:21:49;;;;;;;27.10;19.53;;;;;;;11.47;72.67;101434.00;1814422;78;21231;-74
2022/11/11 05:23:07;;;;;;;16.27;12.30;;;;;;;11.09;87.64;101548.30;1746037;81;21251;-73
2022/11/11 05:25:52;;;;;;;16.13;12.10;;;;;;;11.15;86.98;101554.02;1751757;81;21126;-73
2022/11/11 05:28:37;;;;;;;16.37;12.43;;;;;;;11.19;86.52;101551.18;1738889;81;21215;-74
2022/11/11 05:31:23;;;;;;;15.47;12.23;;;;;;;11.23;85.91;101545.63;1719535;82;21485;-73
2022/11/11 05:34:08;;;;;;;16.43;12.20;;;;;;;11.28;85.39;101550.27;1714400;82;21095;-73
2022/11/11 05:36:53;;;;;;;15.63;12.27;;;;;;;11.31;85.02;101562.36;1766331;81;21880;-73
2022/11/11 05:39:39;;;;;;;18.30;12.87;;;;;;;11.36;84.77;101571.30;1758964;80;21134;-73
2022/11/11 05:42:24;;;;;;;15.87;12.17;;;;;;;11.40;84.28;101578.33;1744492;82;21731;-74
2022/11/11 05:45:09;;;;;;;18.27;14.13;;;;;;;11.44;84.07;101580.81;1704220;82;21158;-74
2022/11/11 05:48:01;;;;;;;17.60;12.70;;;;;;;11.47;83.74;101585.69;1715866;82;21261;-73
2022/11/11 05:50:47;;;;;;;18.70;13.50;;;;;;;11.49;83.35;101591.62;1760131;81;21150;-73
2022/11/11 05:53:32;;;;;;;19.80;14.43;;;;;;;11.49;83.12;101600.46;1747273;81;21275;-73
2022/11/11 05:56:18;;;;;;;18.30;13.57;;;;;;;11.54;82.90;101601.60;1746764;80;21022;-74
2022/11/11 05:59:04;;;;;;;17.17;13.30;;;;;;;11.58;82.58;101599.56;1756026;80;21243;-74
2022/11/11 06:01:49;;;;;;;19.40;14.10;;;;;;;11.60;82.29;101606.81;1759791;81;21172;-73
2022/11/11 06:04:34;;;;;;;21.00;14.83;;;;;;;11.64;81.93;101612.50;1776855;80;21898;-73
2022/11/11 06:07:19;;;;;;;20.57;14.40;;;;;;;11.67;81.73;101616.04;1757271;81;21302;-74
2022/11/11 06:13:13;;;;;;;19.37;14.13;;;;;;;11.72;81.13;101623.66;1745142;82;21788;-73
2022/11/11 06:15:59;;;;;;;19.23;14.90;;;;;;;11.77;80.91;101627.47;1737038;81;21221;-73
2022/11/11 06:18:44;;;;;;;22.43;15.70;;;;;;;11.81;80.72;101628.61;1735468;81;21236;-73
2022/11/11 06:21:31;;;;;;;20.43;14.63;;;;;;;11.84;80.54;101637.01;1747894;81;21035;-74
2022/11/11 06:24:17;;;;;;;20.23;14.17;;;;;;;11.93;80.38;101635.58;1776883;80;21302;-74
2022/11/11 06:27:02;;;;;;;20.00;15.00;;;;;;;12.00;80.15;101648.02;1732056;80;21486;-74
2022/11/11 06:29:48;;;;;;;58.17;19.90;;;;;;;12.05;79.96;101653.48;1752608;81;21351;-74
2022/11/11 06:32:33;;;;;;;33.00;16.20;;;;;;;12.12;79.72;101654.14;1740720;81;21284;-74
2022/11/11 06:35:18;;;;;;;96.33;22.10;;;;;;;12.17;79.52;101658.23;1745152;82;21363;-73
2022/11/11 06:38:04;;;;;;;24.00;14.47;;;;;;;12.22;79.29;101664.23;1758354;80;21416;-74
2022/11/11 06:40:49;;;;;;;21.23;13.93;;;;;;;12.28;79.16;101665.41;1749680;80;21335;-74
2022/11/11 06:43:33;;;;;;;19.87;14.67;;;;;;;12.37;78.90;101667.99;1747434;80;21125;-74
2022/11/11 06:46:23;;;;;;;21.47;14.60;;;;;;;12.40;78.61;101668.02;1751973;80;21568;-74
2022/11/11 06:49:07;;;;;;;30.03;16.37;;;;;;;12.43;78.29;101671.02;1745374;82;21236;-74
2022/11/11 06:51:52;;;;;;;21.77;14.47;;;;;;;12.46;78.02;101672.94;1754642;80;21333;-73
2022/11/11 06:54:37;;;;;;;20.77;14.90;;;;;;;12.50;77.78;101681.58;1739851;81;21260;-73
2022/11/11 07:42:25;;;;;;;52.07;20.77;;;;;;;12.57;79.60;101705.05;1800774;79;22243;-73
2022/11/11 07:45:12;;;;;;;50.47;19.87;;;;;;;12.63;78.89;101707.27;1766454;81;20996;-73
2022/11/11 07:47:57;;;;;;;29.37;17.73;;;;;;;12.71;78.32;101712.24;1765147;81;21235;-75
2022/11/11 07:50:43;;;;;;;36.63;17.10;;;;;;;12.78;77.71;101716.91;1737714;81;21238;-75
2022/11/11 07:53:28;;;;;;;26.00;18.00;;;;;;;12.87;77.43;101724.03;1761546;81;21174;-76
2022/11/11 07:56:13;;;;;;;31.13;17.73;;;;;;;12.98;77.15;101722.32;1766507;80;21808;-73
2022/11/11 07:58:58;;;;;;;25.30;17.67;;;;;;;13.10;76.81;101715.01;1766857;81;21358;-74
2022/11/11 08:01:44;;;;;;;25.67;17.03;;;;;;;13.20;76.38;101721.86;1766933;81;21709;-73
2022/11/11 08:04:29;;;;;;;25.17;17.10;;;;;;;13.28;75.80;101720.66;1751009;81;21202;-74
2022/11/11 08:07:14;;;;;;;64.53;20.30;;;;;;;13.33;75.29;101719.41;1766994;80;21244;-74
2022/11/11 08:10:01;;;;;;;74.67;21.83;;;;;;;13.40;74.78;101720.03;1766776;80;21230;-76
2022/11/11 08:16:18;;;;;;;27.03;16.03;;;;;;;13.46;73.78;101725.76;1767265;80;21263;-74
2022/11/11 08:19:11;;;;;;;36.97;18.60;;;;;;;13.43;73.23;101719.54;1754213;81;21645;-74
2022/11/11 08:22:08;;;;;;;41.60;19.97;;;;;;;13.43;73.07;101725.44;1736833;82;21397;-73
2022/11/11 08:25:01;;;;;;;66.47;21.87;;;;;;;13.58;73.12;101726.97;1711953;82;21232;-75
2022/11/11 08:27:46;;;;;;;28.15;17.07;;;;;;;13.58;73.12;101726.97;1737356;82;21792;-76
2022/11/11 08:30:33;;;;;;;52.77;20.27;;;;;;;13.62;72.43;101730.78;1728390;82;21058;-74
2022/11/11 08:33:19;;;;;;;51.50;20.40;;;;;;;13.60;71.97;101728.36;1701027;84;21369;-75
2022/11/11 08:36:06;;;;;;;25.03;15.67;;;;;;;13.62;71.76;101729.44;1701051;84;21425;-75
2022/11/11 08:38:51;;;;;;;27.60;16.53;;;;;;;13.58;71.32;101721.60;1704388;82;21991;-74
2022/11/11 08:41:44;;;;;;;97.83;23.37;;;;;;;13.58;71.18;101729.13;1706698;84;21901;-73
2022/11/11 08:44:51;;;;;;;51.97;19.60;;;;;;;13.61;71.08;101730.50;1707073;83;21359;-74
2022/11/11 08:47:35;;;;;;;33.10;17.43;;;;;;;13.66;70.89;101738.64;1708852;84;21437;-73
2022/11/11 08:50:25;;;;;;;24.83;16.73;;;;;;;13.66;70.89;101738.64;1695632;84;21484;-76
2022/11/11 08:53:10;;;;;;;27.97;17.07;;;;;;;13.65;70.43;101738.87;1706433;84;21386;-75
2022/11/11 08:55:56;;;;;;;23.50;15.43;;;;;;;13.63;70.24;101735.64;1707059;82;21320;-74
2022/11/11 08:58:43;;;;;;;24.30;16.77;;;;;;;13.63;70.06;101733.77;1706138;84;21404;-74
2022/11/11 09:01:29;;;;;;;25.63;16.73;;;;;;;13.65;69.97;101731.63;1706136;84;21455;-75
2022/11/11 09:04:16;;;;;;;27.33;17.23;;;;;;;13.67;69.83;101730.86;1706472;84;21441;-76
2022/11/11 09:07:01;;;;;;;36.13;18.77;;;;;;;13.73;69.84;101737.11;1706034;83;21975;-74
2022/11/11 09:09:46;;;;;;;29.77;18.33;;;;;;;13.90;69.59;101720.94;1706231;84;21469;-73
2022/11/11 09:12:32;;;;;;;126.03;27.23;;;;;;;13.90;69.59;101720.94;1706989;82;21422;-73
2022/11/11 09:15:18;;;;;;;34.07;19.50;;;;;;;13.97;69.29;101724.23;1706036;84;21573;-75
2022/11/11 09:18:03;;;;;;;39.20;18.87;;;;;;;14.03;69.16;101717.33;1706383;84;21463;-75
2022/11/11 09:20:49;;;;;;;32.90;18.93;;;;;;;14.08;69.06;101715.22;1706015;84;21542;-73
2022/11/11 09:23:36;;;;;;;26.03;17.77;;;;;;;14.14;68.73;101717.44;1716231;82;21419;-74
2022/11/11 09:26:20;;;;;;;66.43;22.13;;;;;;;14.17;68.49;101708.88;1714496;82;21476;-74
2022/11/11 09:29:05;;;;;;;26.17;17.40;;;;;;;14.23;68.07;101710.02;1728842;82;21494;-74
2022/11/11 09:31:51;;;;;;;24.83;17.30;;;;;;;14.37;67.59;101726.55;1708135;82;21791;-74
2022/11/11 09:34:37;;;;;;;24.27;16.90;;;;;;;14.37;67.59;101726.55;1709256;83;21706;-75
2022/11/11 09:37:22;;;;;;;36.73;18.43;;;;;;;14.36;67.00;101733.53;1708249;83;21722;-74
2022/11/11 09:40:18;;;;;;;106.13;24.93;;;;;;;14.37;66.99;101717.14;1708722;83;21710;-74
2022/11/11 09:43:35;;;;;;;30.67;18.20;;;;;;;14.40;67.04;101710.45;1708100;84;21670;-73
2022/11/11 09:47:05;;;;;;;55.10;20.67;;;;;;;14.43;66.75;101713.98;1712428;82;21739;-72
2022/11/11 09:50:00;;;;;;;33.33;18.07;;;;;;;14.44;66.45;101717.74;1735805;82;21726;-73
2022/11/11 09:52:55;;;;;;;31.60;18.53;;;;;;;14.43;66.22;101713.98;1735352;82;21687;-73
2022/11/11 09:55:43;;;;;;;60.23;21.40;;;;;;;14.44;66.30;101711.02;1735063;82;21890;-73
2022/11/11 09:58:35;;;;;;;50.93;20.70;;;;;;;14.39;65.76;101709.65;1735467;82;22209;-73
2022/11/11 10:01:30;;;;;;;30.13;17.50;;;;;;;14.39;65.76;101709.65;1735308;82;21736;-72
2022/11/11 14:45:52;;;;;;;16.83;13.30;;;;;;;13.27;71.91;101813.76;1756538;80;22764;-76
2022/11/11 14:48:56;;;;;;;19.27;13.60;;;;;;;13.32;71.01;101812.48;1775156;79;21082;-76
2022/11/11 14:51:50;;;;;;;18.90;13.37;;;;;;;13.40;70.28;101822.55;1804623;78;21207;-77
2022/11/11 14:54:55;;;;;;;17.07;12.80;;;;;;;13.45;69.64;101823.95;1779184;78;21238;-76
2022/11/11 14:58:02;;;;;;;20.27;13.77;;;;;;;13.48;69.15;101826.14;1841257;78;21246;-76
2022/11/11 15:00:53;;;;;;;20.17;14.27;;;;;;;13.50;68.70;101826.72;1802587;79;21277;-76
2022/11/11 15:03:48;;;;;;;20.17;14.60;;;;;;;13.50;68.28;101827.53;1808170;78;21230;-76
2022/11/11 15:06:44;;;;;;;20.83;14.47;;;;;;;13.47;67.94;101821.84;1809006;79;21159;-75
2022/11/11 15:10:03;;;;;;;24.73;16.33;;;;;;;13.42;67.68;101822.56;1806504;78;21162;-73
2022/11/11 15:13:26;;;;;;;21.73;15.97;;;;;;;13.40;67.45;101831.41;1825669;78;21159;-75
2022/11/11 15:16:47;;;;;;;23.45;17.32;;;;;;;13.37;67.29;101840.75;1837484;78;21169;-74
2022/11/11 15:20:02;;;;;;;34.60;30.37;;;;;;;13.40;67.18;101854.75;1778375;78;20991;-74
2022/11/11 15:23:29;;;;;;;26.10;20.83;;;;;;;13.40;67.12;101845.36;1812725;78;21301;-76
2022/11/11 15:26:32;;;;;;;27.83;19.70;;;;;;;13.42;66.98;101857.98;1773016;79;21111;-77
2022/11/11 15:29:40;;;;;;;203.58;37.28;;;;;;;13.40;66.80;101858.77;1774681;79;21206;-72
2022/11/11 15:32:39;;;;;;;41.00;21.30;;;;;;;13.33;66.79;101858.41;1823242;78;21038;-78
2022/11/11 15:35:47;;;;;;;212.13;100.13;;;;;;;13.34;66.77;101846.60;1819079;78;21121;-81
2022/11/11 15:38:33;;;;;;;48.23;29.37;;;;;;;13.31;66.76;101852.45;1823916;78;22067;-79
2022/11/11 15:41:30;;;;;;;77.70;41.17;;;;;;;13.26;66.73;101844.84;1828355;78;21254;-78
2022/11/11 15:44:31;;;;;;;68.83;38.27;;;;;;;13.22;66.70;101857.90;1814089;78;21302;-76
2022/11/11 15:47:18;;;;;;;107.27;51.92;;;;;;;13.17;66.73;101857.83;1815333;78;21284;-79
2022/11/11 15:50:18;;;;;;;140.97;65.30;;;;;;;13.11;66.75;101851.55;1803877;79;21038;-78
2022/11/11 15:53:03;;;;;;;58.07;30.77;;;;;;;13.12;66.71;101851.83;1769519;80;21240;-77
2022/11/11 15:55:56;;;;;;;35.00;20.10;;;;;;;13.11;66.53;101850.75;1790380;79;21754;-78
2022/11/11 15:58:41;;;;;;;29.98;18.75;;;;;;;13.07;66.48;101848.27;1803650;79;21165;-78
2022/11/11 16:01:27;;;;;;;37.77;22.30;;;;;;;13.00;66.45;101851.63;1804491;79;21029;-78
2022/11/11 16:04:18;;;;;;;85.30;42.17;;;;;;;12.94;66.55;101848.57;1792683;79;21048;-78
2022/11/11 16:07:07;;;;;;;122.77;52.57;;;;;;;12.89;66.47;101850.08;1804400;78;21264;-79
2022/11/11 16:09:54;;;;;;;39.53;23.20;;;;;;;12.83;66.43;101846.20;1804324;79;21273;-79
2022/11/11 16:12:50;;;;;;;52.77;27.80;;;;;;;12.74;66.47;101845.80;1804458;79;21249;-78
2022/11/11 16:15:45;;;;;;;55.07;30.37;;;;;;;12.64;66.60;101850.97;1804473;79;21716;-78
2022/11/11 16:18:47;;;;;;;80.17;39.77;;;;;;;12.60;66.66;101856.50;1800933;79;21316;-78
2022/11/11 16:21:50;;;;;;;150.07;68.50;;;;;;;12.56;66.68;101854.83;1804459;79;21935;-78
2022/11/11 16:24:40;;;;;;;87.90;44.50;;;;;;;12.52;66.62;101853.67;1802629;79;21314;-79
2022/11/11 16:27:29;;;;;;;58.50;34.13;;;;;;;12.47;66.51;101854.94;1813016;78;21488;-77
2022/11/11 16:30:35;;;;;;;37.70;22.97;;;;;;;12.41;66.44;101859.38;1796104;79;21125;-77
2022/11/11 16:33:32;;;;;;;28.70;19.70;;;;;;;12.33;66.28;101863.73;1812022;78;21596;-77
2022/11/11 16:36:16;;;;;;;31.03;19.57;;;;;;;12.23;66.18;101867.55;1838489;78;21277;-79
2022/11/11 16:39:19;;;;;;;25.00;17.27;;;;;;;12.14;66.17;101872.47;1811053;78;21191;-78
2022/11/11 16:42:25;;;;;;;;;;;;;;;12.08;66.30;101882.78;1791122;79;21165;-78
2022/11/11 16:45:19;;;;;;;28.27;18.73;;;;;;;12.05;66.51;101883.78;1807828;79;20226;-79
2022/11/11 16:48:04;;;;;;;19.35;14.15;;;;;;;12.01;66.72;101884.77;1804219;79;21398;-78
2022/11/11 16:51:03;;;;;;;24.82;16.17;;;;;;;12.00;66.93;101887.14;1804903;78;21237;-78
2022/11/11 16:54:05;;;;;;;23.25;17.02;;;;;;;12.02;67.25;101894.42;1797070;79;21070;-77
2022/11/11 16:56:54;;;;;;;32.55;23.57;;;;;;;12.03;67.47;101893.37;1773595;81;21028;-77
2022/11/11 16:59:43;;;;;;;30.43;20.87;;;;;;;12.04;67.56;101894.18;1800983;79;20971;-76
2022/11/11 17:02:29;;;;;;;29.80;21.82;;;;;;;12.06;67.56;101896.11;1810471;78;20837;-77
2022/11/11 17:05:14;;;;;;;27.70;20.75;;;;;;;12.10;67.65;101895.92;1779205;80;21129;-77
2022/11/11 17:07:59;;;;;;;30.30;22.27;;;;;;;12.15;67.84;101895.52;1774333;78;21007;-76
2022/11/11 17:10:45;;;;;;;26.95;18.75;;;;;;;12.21;67.89;101891.09;1807404;77;21186;-77
2022/11/11 17:13:32;;;;;;;20.23;15.43;;;;;;;12.28;67.96;101893.12;1807915;79;20931;-77
2022/11/11 17:16:17;;;;;;;24.17;17.87;;;;;;;12.32;67.81;101887.58;1827665;78;20982;-75
2022/11/11 17:19:04;;;;;;;18.60;14.47;;;;;;;12.38;67.69;101893.33;1843583;77;21000;-78
2022/11/11 17:21:48;;;;;;;20.30;14.20;;;;;;;12.37;67.61;101890.38;1774385;79;21357;-78
2022/11/11 17:24:35;;;;;;;17.43;13.17;;;;;;;12.39;67.41;101897.63;1800071;79;21344;-79
2022/11/11 17:27:20;;;;;;;17.80;13.53;;;;;;;12.39;67.15;101896.83;1797985;79;21731;-79
2022/11/11 17:30:07;;;;;;;17.53;13.60;;;;;;;12.32;66.85;101883.55;1806212;79;21139;-79
2022/11/11 17:32:53;;;;;;;17.40;12.87;;;;;;;12.22;66.66;101882.00;1789236;79;21760;-79
2022/11/11 17:35:37;;;;;;;16.97;12.73;;;;;;;12.11;66.57;101889.01;1807176;79;21298;-79
2022/11/11 17:38:22;;;;;;;17.90;13.17;;;;;;;12.02;66.50;101886.39;1804558;79;21262;-79
2022/11/11 17:41:14;;;;;;;19.82;13.15;;;;;;;11.92;66.38;101882.95;1806680;78;21287;-79
2022/11/11 17:43:58;;;;;;;16.60;12.87;;;;;;;11.84;66.30;101875.76;1803068;78;21062;-79
2022/11/11 17:46:43;;;;;;;17.10;12.47;;;;;;;11.77;66.28;101874.53;1773911;79;21722;-78
2022/11/11 17:49:28;;;;;;;16.47;12.80;;;;;;;11.73;66.24;101876.87;1803460;78;21649;-79
2022/11/11 17:52:13;;;;;;;16.47;13.00;;;;;;;11.67;66.18;101871.63;1796471;78;21327;-78
2022/11/11 17:54:58;;;;;;;17.32;14.00;;;;;;;11.63;66.12;101869.12;1797263;78;21394;-78
2022/11/11 17:57:43;;;;;;;18.17;14.63;;;;;;;11.55;66.15;101864.94;1814520;78;21101;-78
2022/11/11 18:00:28;;;;;;;16.23;12.43;;;;;;;11.50;66.19;101864.28;1813524;78;21403;-80
2022/11/11 18:16:44;;;;;;;17.50;14.87;;;;;;;11.78;66.80;101860.63;1807376;77;23585;-71
2022/11/11 18:19:29;;;;;;;17.87;14.83;;;;;;;11.78;66.55;101864.14;1758766;80;21144;-71
2022/11/11 18:22:15;;;;;;;16.73;13.70;;;;;;;11.77;66.40;101867.84;1787202;79;21603;-71
2022/11/11 18:25:00;;;;;;;13.37;11.97;;;;;;;11.73;66.40;101862.67;1773586;79;21334;-71
2022/11/11 18:27:46;;;;;;;14.30;11.87;;;;;;;11.72;66.41;101868.55;1787467;78;21209;-72
2022/11/11 18:30:31;;;;;;;13.50;10.43;;;;;;;11.68;66.36;101870.57;1743235;80;21222;-71
2022/11/11 18:33:16;;;;;;;12.77;10.87;;;;;;;11.62;66.34;101872.33;1756832;81;21302;-72
2022/11/11 18:36:08;;;;;;;14.10;11.37;;;;;;;11.54;66.26;101873.19;1775213;80;21254;-73
2022/11/11 18:38:54;;;;;;;;;;;;;;;11.44;66.37;101874.56;1794000;78;21106;-72
2022/11/11 18:41:39;;;;;;;14.43;12.43;;;;;;;11.36;66.43;101876.25;1780228;78;20652;-72
2022/11/11 18:44:25;;;;;;;15.10;12.85;;;;;;;11.28;66.55;101878.71;1747370;79;21358;-71
2022/11/11 18:47:09;;;;;;;14.58;11.80;;;;;;;11.23;66.59;101881.27;1788322;78;21055;-71
2022/11/11 18:49:55;;;;;;;14.35;11.70;;;;;;;11.18;66.64;101874.97;1788005;80;21143;-69
2022/11/11 18:52:41;;;;;;;15.13;12.07;;;;;;;11.12;66.67;101881.23;1761690;79;21090;-70
2022/11/11 18:55:27;;;;;;;13.55;10.95;;;;;;;11.07;66.72;101879.77;1795120;78;21239;-71
2022/11/11 18:58:11;;;;;;;13.32;11.43;;;;;;;11.08;66.78;101884.06;1783439;78;21051;-71
2022/11/11 19:01:12;;;;;;;12.25;10.95;;;;;;;11.08;66.76;101888.08;1787814;80;21069;-71
2022/11/11 19:04:06;;;;;;;12.68;10.48;;;;;;;11.02;66.60;101885.29;1763855;80;21604;-71
2022/11/11 19:06:51;;;;;;;15.85;12.75;;;;;;;10.85;66.59;101890.95;1782440;79;21046;-72
2022/11/11 19:09:36;;;;;;;15.20;13.40;;;;;;;10.83;66.66;101896.25;1779657;78;21057;-71
2022/11/11 19:12:21;;;;;;;16.00;13.55;;;;;;;10.79;66.66;101900.70;1801997;78;21018;-71
2022/11/11 19:15:07;;;;;;;18.25;14.93;;;;;;;10.77;66.63;101901.97;1741205;81;21051;-71
2022/11/11 19:17:52;;;;;;;14.25;12.73;;;;;;;10.74;66.50;101898.41;1759798;79;22026;-71
2022/11/11 19:20:38;;;;;;;16.35;14.05;;;;;;;10.69;66.40;101904.93;1757794;81;21061;-71
2022/11/11 19:23:22;;;;;;;15.78;13.62;;;;;;;10.63;66.39;101902.66;1789482;78;21026;-70
2022/11/11 19:26:07;;;;;;;16.20;13.80;;;;;;;10.59;66.30;101902.78;1790354;80;20979;-71
2022/11/11 19:28:54;;;;;;;18.07;14.53;;;;;;;10.53;66.26;101903.19;1744464;80;21150;-71
2022/11/11 19:31:39;;;;;;;15.72;14.00;;;;;;;10.49;66.25;101897.16;1756162;81;21973;-70
2022/11/11 19:34:24;;;;;;;17.40;14.45;;;;;;;10.42;66.21;101898.56;1733335;81;21007;-69
2022/11/11 19:37:12;;;;;;;16.80;15.05;;;;;;;10.37;66.15;101898.96;1785272;80;20978;-70
2022/11/11 19:39:57;;;;;;;16.60;14.80;;;;;;;10.29;66.12;101900.05;1775665;80;21583;-71
2022/11/11 19:42:42;;;;;;;18.10;15.32;;;;;;;10.22;66.12;101900.61;1755959;80;21101;-71
2022/11/11 19:45:26;;;;;;;18.00;14.95;;;;;;;10.15;66.10;101901.20;1767849;80;21234;-71
2022/11/11 19:48:13;;;;;;;18.17;14.07;;;;;;;10.05;66.14;101895.84;1681705;84;21074;-72
2022/11/11 19:51:12;;;;;;;15.95;13.90;;;;;;;9.97;66.20;101902.81;1660842;84;21063;-71
2022/11/11 19:53:57;;;;;;;16.50;14.05;;;;;;;9.90;66.15;101895.36;1707087;83;21125;-71
2022/11/11 19:56:41;;;;;;;16.57;13.20;;;;;;;9.83;66.11;101895.95;1688217;84;21123;-71
2022/11/11 19:59:26;;;;;;;15.98;12.95;;;;;;;9.77;66.06;101904.82;1708825;82;21292;-71
2022/11/11 20:02:11;;;;;;;17.32;13.62;;;;;;;9.68;66.02;101900.81;1718370;82;21118;-70
2022/11/11 20:04:56;;;;;;;17.35;12.85;;;;;;;9.61;65.95;101904.35;1683604;84;22354;-71
2022/11/11 20:07:50;;;;;;;19.92;13.03;;;;;;;9.54;65.97;101906.27;1703168;82;21065;-71
2022/11/11 20:10:37;;;;;;;15.87;11.47;;;;;;;9.48;65.99;101913.78;1583166;84;10000260;-71
2022/11/11 20:13:22;;;;;;;16.65;12.03;;;;;;;9.39;65.98;101921.74;1703549;82;21533;-71
2022/11/11 20:16:09;;;;;;;14.85;11.33;;;;;;;9.32;66.07;101919.13;1676187;84;21037;-71
2022/11/11 20:18:56;;;;;;;13.28;11.22;;;;;;;9.26;66.20;101922.64;1705633;82;21020;-71
2022/11/11 20:21:44;;;;;;;13.13;11.03;;;;;;;9.21;66.21;101921.64;1708632;82;21098;-70
